Spearfish Canyon, South Dakota
Current Conditions -  °F | °C
As of 5:15 AM on Tuesday 27 Jan 2015 (Local Time) from KSPF Reporting Station
Clear Clear  
Wind Chill: 50°   Ceiling: Unl
Heat Index: 50°   Visibility: 10mi
Dew Point: 23°   Wind: 5mph
Humidity: 35%   Direction: 330°NNW
Pressure: 29.97"   Gusts: NA
Location:  44.253°N, 103.912°W
Report Text: KSPF 271215Z AUTO 33004KT 10SM CLR 10/M05 A2997 RMK AO2
Loading
Personal Weather Stations






























Interactive Weather Map New forecast layout! Learn more

10-Day Weather Forecast

Advertisements
Track Severe Weather on mobile